Time;durP1;ratioP1;P1;durP2;ratioP2;P2;SDS_P1;SDS_P2;PMS_P1;PMS_P2;Temp;Humidity;BMP_temperature;BMP_pressure;BME280_temperature;BME280_humidity;BME280_pressure;Samples;Min_cycle;Max_cycle;Signal;HPM_P1;HPM_P2
2021/01/24 00:03:43;;;;;;;;;;;1.10;99.90;;;0.30;84.38;93453.69;10290286;28;1993;-81
2021/01/24 00:08:45;;;;;;;;;;;2.50;99.90;;;0.48;83.82;93471.66;10283617;28;1953;-82
2021/01/24 00:13:52;;;;;;;;;;;1.40;99.90;;;0.66;82.66;93490.66;10285084;29;1892;-81
2021/01/24 00:18:55;;;;;;;;;;;1.60;99.90;;;0.83;81.67;93491.16;10258479;28;2018;-82
2021/01/24 00:23:57;;;;;;;;;;;1.60;99.90;;;0.98;81.01;93483.16;10249575;28;2046;-83
2021/01/24 00:29:01;;;;;;;;;;;1.90;99.90;;;1.07;80.72;93481.53;10245829;28;2043;-80
2021/01/24 00:34:12;;;;;;;;;;;2.00;99.90;;;1.07;81.52;93481.53;10245421;29;1981;-82
2021/01/24 00:39:20;;;;;;;;;;;2.00;99.90;;;1.06;81.97;93493.19;10261484;28;1269;-83
2021/01/24 00:44:23;;;;;;;;;;;2.00;99.90;;;0.90;81.59;93485.59;10275706;28;2080;-84
2021/01/24 00:49:25;;;;;;;;;;;3.20;99.90;;;0.84;82.91;93487.44;10272760;28;2176;-79
2021/01/24 00:54:27;;;;;;;;;;;2.90;99.90;;;0.75;84.00;93486.41;10277981;29;2000;-81
2021/01/24 00:59:40;;;;;;;;;;;1.80;99.90;;;0.80;84.13;93481.09;10285013;28;2038;-81
2021/01/24 01:04:46;;;;;;;;;;;1.80;99.90;;;0.88;85.52;93488.47;10263360;29;2088;-82
2021/01/24 01:09:48;;;;;;;;;;;2.00;99.90;;;0.88;85.79;93496.41;10282477;28;2034;-82
2021/01/24 01:14:50;;;;;;;;;;;1.80;99.90;;;0.82;85.44;93500.13;10285018;29;2006;-82
2021/01/24 01:19:52;;;;;;;;;;;1.90;99.90;;;0.77;85.99;93497.53;10273066;28;2072;-81
2021/01/24 01:24:54;;;;;;;;;;;1.80;99.90;;;0.88;84.69;93499.06;10281509;28;2069;-82
2021/01/24 01:29:56;;;;;;;;;;;1.80;99.90;;;0.89;83.63;93500.66;10285589;28;2009;-81
2021/01/24 01:34:57;;;;;;;;;;;1.90;99.90;;;0.96;81.71;93501.19;10290276;28;1957;-80
2021/01/24 01:40:00;;;;;;;;;;;2.30;99.90;;;0.96;81.08;93506.47;10269770;28;2024;-81
2021/01/24 01:45:03;;;;;;;;;;;2.00;99.90;;;0.78;80.87;93499.09;10258598;29;1997;-81
2021/01/24 01:50:06;;;;;;;;;;;1.90;99.90;;;0.70;79.81;93502.28;10251426;28;2155;-83
2021/01/24 01:55:07;;;;;;;;;;;2.20;99.90;;;0.62;79.26;93486.97;10266348;28;1929;-81
2021/01/24 02:00:10;;;;;;;;;;;1.70;99.90;;;0.52;80.40;93503.66;10248991;28;2029;-82
2021/01/24 02:05:11;;;;;;;;;;;1.70;99.90;;;0.56;79.41;93499.38;10263754;29;1729;-83
2021/01/24 02:10:13;;;;;;;;;;;1.50;99.90;;;0.55;79.00;93521.59;10280257;28;2115;-80
2021/01/24 02:15:15;;;;;;;;;;;2.30;99.90;;;0.46;79.61;93515.28;10276827;29;1950;-81
2021/01/24 02:20:17;;;;;;;;;;;3.10;99.90;;;0.49;79.21;93525.31;10268050;28;2159;-81
2021/01/24 02:25:19;;;;;;;;;;;2.40;99.90;;;0.44;79.50;93520.81;10262317;29;2073;-82
2021/01/24 02:30:21;;;;;;;;;;;1.70;99.90;;;0.41;79.94;93534.56;10272389;28;2177;-82
2021/01/24 02:35:23;;;;;;;;;;;1.70;99.90;;;0.51;79.61;93521.34;10272183;28;1232;-81
2021/01/24 02:40:25;;;;;;;;;;;2.60;99.90;;;0.46;80.38;93525.84;10254085;28;1380;-81
2021/01/24 02:45:27;;;;;;;;;;;2.90;99.90;;;0.49;80.72;93518.16;10289618;28;1298;-82
2021/01/24 02:50:29;;;;;;;;;;;1.60;99.90;;;0.57;80.63;93524.75;10279067;28;2090;-81
2021/01/24 02:55:31;;;;;;;;;;;1.60;99.90;;;0.52;81.50;93519.50;10282283;28;1828;-82
2021/01/24 03:00:32;;;;;;;;;;;2.70;99.90;;;0.45;82.03;93530.34;10265177;28;1708;-83
2021/01/24 03:05:34;;;;;;;;;;;1.50;99.90;;;0.55;82.20;93534.81;10264431;29;2024;-81
2021/01/24 03:10:36;;;;;;;;;;;3.30;99.90;;;0.50;82.18;93530.31;10263889;28;2096;-83
2021/01/24 03:15:38;;;;;;;;;;;1.60;99.90;;;0.44;82.34;93536.66;10279612;29;2040;-83
2021/01/24 03:20:40;;;;;;;;;;;1.50;99.90;;;0.43;82.48;93545.66;10272866;28;2121;-81
2021/01/24 03:25:42;;;;;;;;;;;1.50;99.90;;;0.45;82.75;93543.56;10300059;28;1732;-81
2021/01/24 03:30:44;;;;;;;;;;;1.50;99.90;;;0.46;82.16;93555.72;10288775;28;2029;-81
2021/01/24 03:35:47;;;;;;;;;;;2.30;99.90;;;0.44;82.06;93563.09;10276300;29;2088;-81
2021/01/24 03:40:49;;;;;;;;;;;3.80;99.90;;;0.40;82.50;93575.28;10279094;28;2191;-80
2021/01/24 03:45:50;;;;;;;;;;;2.40;99.90;;;0.43;82.88;93571.28;10271482;29;2223;-80
2021/01/24 03:50:52;;;;;;;;;;;2.30;99.90;;;0.48;82.41;93580.03;10275231;28;1985;-79
2021/01/24 03:55:54;;;;;;;;;;;3.20;99.90;;;0.50;82.10;93575.25;10258438;28;2273;-81
2021/01/24 04:00:56;;;;;;;;;;;2.60;99.90;;;0.55;81.72;93585.03;10275550;28;1708;-81
2021/01/24 04:05:58;;;;;;;;;;;1.60;99.90;;;0.75;80.12;93594.81;10268595;29;1758;-81
2021/01/24 04:11:04;;;;;;;;;;;2.90;99.90;;;0.93;79.09;93596.94;10256031;28;2064;-82
2021/01/24 04:16:06;;;;;;;;;;;1.90;99.90;;;0.85;78.53;93581.59;10260463;28;2044;-80
2021/01/24 04:21:08;;;;;;;;;;;2.70;99.90;;;0.79;78.14;93586.09;10271646;28;1993;-82
2021/01/24 04:26:10;;;;;;;;;;;4.00;99.90;;;0.71;78.33;93605.16;10272760;29;1989;-81
2021/01/24 04:31:11;;;;;;;;;;;1.80;99.90;;;0.73;77.90;93613.59;10258394;28;2205;-82
2021/01/24 04:36:14;;;;;;;;;;;3.00;99.90;;;0.69;77.83;93627.63;10271681;28;2149;-82
2021/01/24 04:41:15;;;;;;;;;;;1.80;99.90;;;0.64;78.03;93640.84;10288885;28;1384;-82
2021/01/24 04:46:17;;;;;;;;;;;1.80;99.90;;;0.61;77.73;93647.44;10274397;29;2056;-82
2021/01/24 04:51:19;;;;;;;;;;;2.20;99.90;;;0.62;77.84;93650.88;10279399;28;2092;-83
2021/01/24 04:56:21;;;;;;;;;;;1.70;99.90;;;0.63;77.06;93666.47;10284393;28;1593;-83
2021/01/24 05:01:23;;;;;;;;;;;1.60;99.90;;;0.58;76.98;93658.56;10268341;28;2100;-83
2021/01/24 05:06:26;;;;;;;;;;;2.90;99.90;;;0.53;76.65;93677.06;10283011;28;2010;-85
2021/01/24 05:11:28;;;;;;;;;;;3.20;99.90;;;0.50;76.30;93667.00;10283167;28;2076;-84
2021/01/24 05:16:30;;;;;;;;;;;1.50;99.90;;;0.48;76.10;93680.47;10273781;28;1905;-83
2021/01/24 05:21:32;;;;;;;;;;;1.90;99.90;;;0.42;75.41;93699.22;10274780;28;1950;-84
2021/01/24 05:26:34;;;;;;;;;;;1.50;99.90;;;0.34;75.47;93716.41;10281984;28;2064;-83
2021/01/24 05:31:38;;;;;;;;;;;1.40;99.90;;;0.24;75.68;93733.00;10272778;28;1986;-84
2021/01/24 05:36:40;;;;;;;;;;;1.40;99.90;;;0.21;74.90;93727.44;10264238;29;2082;-84
2021/01/24 05:41:42;;;;;;;;;;;1.30;99.90;;;0.14;75.40;93755.97;10281557;28;1990;-85
2021/01/24 05:46:44;;;;;;;;;;;1.40;99.90;;;0.05;76.52;93754.84;10264343;29;2038;-84
2021/01/24 05:51:47;;;;;;;;;;;1.10;99.90;;;0.00;76.48;93774.13;10276199;28;2171;-85
2021/01/24 05:56:49;;;;;;;;;;;1.10;99.90;;;-0.09;76.55;93784.38;10274271;29;2111;-83
2021/01/24 06:01:51;;;;;;;;;;;1.00;99.90;;;-0.13;75.82;93796.47;10258838;29;1944;-84
2021/01/24 06:06:53;;;;;;;;;;;2.50;99.90;;;-0.21;75.19;93804.88;10257576;29;2096;-83
2021/01/24 06:11:56;;;;;;;;;;;0.90;99.90;;;-0.24;75.39;93815.19;10280149;28;1891;-84
2021/01/24 06:17:04;;;;;;;;;;;2.90;99.90;;;-0.28;75.18;93820.16;10250985;29;2164;-85
2021/01/24 06:22:07;;;;;;;;;;;0.80;99.90;;;-0.25;74.88;93835.50;10283115;29;2029;-84
2021/01/24 06:27:09;;;;;;;;;;;2.90;99.90;;;-0.29;75.65;93839.69;10282248;29;2048;-82
2021/01/24 06:32:11;;;;;;;;;;;1.10;99.90;;;-0.35;74.88;93840.72;10267926;29;1971;-83
2021/01/24 06:37:17;;;;;;;;;;;0.70;99.90;;;-0.47;74.90;93840.09;10283336;28;1966;-84
2021/01/24 06:42:21;;;;;;;;;;;3.50;99.90;;;-0.48;74.26;93856.97;10288450;28;2096;-83
2021/01/24 06:47:28;;;;;;;;;;;1.40;99.90;;;-0.42;73.93;93867.31;10289004;28;1950;-82
2021/01/24 06:52:29;;;;;;;;;;;0.50;99.90;;;-0.25;73.92;93883.03;10279700;28;2201;-84
2021/01/24 06:57:31;;;;;;;;;;;0.70;99.90;;;-0.01;73.42;93889.53;10289299;28;1907;-85
2021/01/24 07:02:33;;;;;;;;;;;0.80;99.90;;;-0.01;73.61;93894.81;10275379;28;2202;-85
2021/01/24 07:07:35;;;;;;;;;;;1.00;99.90;;;-0.07;73.96;93900.31;10286455;29;2149;-84
2021/01/24 07:12:37;;;;;;;;;;;3.20;99.90;;;-0.09;74.15;93897.13;10269628;28;2085;-84
2021/01/24 07:17:40;;;;;;;;;;;1.90;99.90;;;-0.17;75.05;93918.75;10277678;28;1968;-83
2021/01/24 07:22:42;;;;;;;;;;;0.90;99.90;;;-0.25;74.81;93925.28;10282640;28;1273;-83
2021/01/24 07:27:44;;;;;;;;;;;2.40;99.90;;;-0.31;73.71;93935.00;10290593;28;2032;-85
2021/01/24 07:32:47;;;;;;;;;;;1.50;99.90;;;-0.19;73.42;93940.13;10305191;28;1890;-85
2021/01/24 07:37:49;;;;;;;;;;;1.10;99.90;;;-0.03;71.86;93948.97;10301631;28;1442;-84
2021/01/24 07:42:51;;;;;;;;;;;1.70;99.90;;;0.21;70.68;93959.97;10288174;28;1772;-85
2021/01/24 07:47:53;;;;;;;;;;;1.10;99.90;;;0.34;71.19;93962.19;10300956;28;1533;-85
2021/01/24 07:52:57;;;;;;;;;;;1.80;99.90;;;0.35;71.48;93963.78;10287555;28;1951;-82
2021/01/24 07:57:59;;;;;;;;;;;3.20;99.90;;;0.42;70.98;93961.69;10292560;28;1261;-83
2021/01/24 08:03:04;;;;;;;;;;;1.40;99.90;;;0.54;70.87;93970.25;10266617;29;2236;-84
2021/01/24 08:08:08;;;;;;;;;;;2.20;99.90;;;0.80;70.09;93975.69;10277467;28;2112;-82
2021/01/24 08:13:10;;;;;;;;;;;1.50;99.90;;;0.70;68.04;93988.84;10281249;28;1895;-83
2021/01/24 08:18:14;;;;;;;;;;;1.70;99.90;;;0.70;67.20;93999.41;10281021;28;1973;-84
2021/01/24 08:23:24;;;;;;;;;;;1.60;99.90;;;0.80;66.95;93988.91;10279827;28;2075;-82
2021/01/24 08:28:26;;;;;;;;;;;3.20;99.90;;;0.84;66.05;94000.56;10268641;29;1762;-84
2021/01/24 08:33:29;;;;;;;;;;;3.80;99.90;;;0.83;65.58;93999.00;10289401;28;1961;-84
2021/01/24 08:38:32;;;;;;;;;;;3.40;99.90;;;0.84;64.23;93997.94;10286260;28;1776;-85
2021/01/24 08:43:34;;;;;;;;;;;3.60;99.90;;;2.23;73.13;94000.75;10263848;28;1646;-85
2021/01/24 08:48:36;;;;;;;;;;;2.00;99.90;;;2.86;58.95;93998.56;10261154;28;1962;-87
2021/01/24 08:53:37;;;;;;;;;;;3.50;95.90;;;2.02;60.43;94007.06;10255051;29;1955;-82
2021/01/24 08:58:39;;;;;;;;;;;3.30;93.20;;;1.49;63.31;94015.16;10276659;28;1996;-82
2021/01/24 09:03:42;;;;;;;;;;;3.80;95.10;;;1.21;64.24;94021.66;10280196;28;2021;-82
2021/01/24 09:08:44;;;;;;;;;;;4.10;96.90;;;1.21;65.23;94044.66;10277215;28;2319;-83
2021/01/24 09:13:49;;;;;;;;;;;2.10;94.20;;;0.96;62.54;94043.50;10266373;29;1973;-85
2021/01/24 09:18:52;;;;;;;;;;;2.10;93.40;;;0.84;58.94;94048.19;10282462;28;1949;-83
2021/01/24 09:23:54;;;;;;;;;;;1.90;89.90;;;0.61;60.58;94044.06;10276125;28;1858;-83
2021/01/24 09:28:56;;;;;;;;;;;1.80;90.40;;;0.62;59.71;94052.78;10271390;28;2069;-84
2021/01/24 09:33:58;;;;;;;;;;;2.80;90.10;;;0.84;57.51;94065.91;10271917;28;1907;-82
2021/01/24 09:39:04;;;;;;;;;;;3.40;88.70;;;0.71;56.99;94081.16;10294039;28;1602;-84
2021/01/24 09:44:06;;;;;;;;;;;1.70;86.10;;;0.55;56.50;94074.16;10286106;28;1677;-82
2021/01/24 09:49:08;;;;;;;;;;;1.60;84.60;;;0.59;57.24;94087.69;10286701;28;2048;-83
2021/01/24 09:54:14;;;;;;;;;;;1.60;85.80;;;0.57;57.86;94085.25;10266441;29;1887;-82
2021/01/24 09:59:16;;;;;;;;;;;1.60;85.50;;;0.51;57.25;94081.81;10291108;28;1490;-82
2021/01/24 10:04:18;;;;;;;;;;;1.40;85.20;;;0.63;55.75;94073.69;10274304;28;1610;-83
2021/01/24 10:09:21;;;;;;;;;;;3.10;85.20;;;0.65;56.39;94089.31;10283030;28;1312;-81
2021/01/24 10:14:23;;;;;;;;;;;1.60;83.40;;;0.79;54.81;94093.13;10273659;28;1883;-82
2021/01/24 10:19:25;;;;;;;;;;;2.70;83.00;;;1.00;55.47;94083.47;10283493;28;1773;-82
2021/01/24 10:24:27;;;;;;;;;;;1.90;82.70;;;0.97;54.30;94082.13;10285610;28;1540;-79
2021/01/24 10:29:29;;;;;;;;;;;1.90;81.20;;;1.06;55.11;94082.44;10259382;28;1443;-84
2021/01/24 10:34:41;;;;;;;;;;;3.50;82.00;;;0.95;55.04;94097.44;10258879;28;1887;-85
2021/01/24 10:39:51;;;;;;;;;;;3.20;81.50;;;0.93;53.95;94099.56;10323884;23;1618;-84
2021/01/24 11:08:04;;;;;;;;;;;1.90;78.80;;;0.76;53.38;94077.72;10379649;28;1735;-81
2021/01/24 11:19:24;;;;;;;;;;;1.90;78.70;;;0.96;53.37;94082.41;10301905;28;1836;-82
2021/01/24 11:24:29;;;;;;;;;;;1.90;79.00;;;1.11;53.14;94068.44;10346479;28;2041;-85
2021/01/24 11:29:32;;;;;;;;;;;1.90;78.10;;;1.23;51.94;94067.19;10349044;28;1963;-83
2021/01/24 11:34:34;;;;;;;;;;;4.30;77.90;;;1.18;50.92;94084.91;10360830;28;1981;-83
2021/01/24 11:39:36;;;;;;;;;;;2.30;75.80;;;1.19;51.21;94075.91;10333663;28;2044;-84
2021/01/24 11:44:42;;;;;;;;;;;2.20;76.00;;;1.11;52.84;94079.03;10347523;28;2019;-81
2021/01/24 11:55:11;;;;;;;;;;;2.00;75.70;;;1.19;51.27;94081.19;10334488;28;2020;-83
2021/01/24 12:00:27;;;;;;;;;;;3.10;76.40;;;1.67;50.24;94076.66;10351717;28;1860;-84
2021/01/24 12:05:57;;;;;;;;;;;2.30;75.40;;;1.98;49.33;94083.66;10332460;28;2114;-84
2021/01/24 12:11:47;;;;;;;;;;;4.20;74.60;;;2.07;50.24;94071.47;10363161;28;2033;-83
2021/01/24 12:17:05;;;;;;;;;;;4.30;75.20;;;2.02;49.10;94060.06;10367572;28;1711;-80
2021/01/24 12:22:10;;;;;;;;;;;4.40;73.70;;;2.12;49.88;94083.97;10330701;28;1860;-82
2021/01/24 12:27:17;;;;;;;;;;;4.00;74.00;;;2.17;48.68;94068.84;10345106;28;1895;-83
2021/01/24 12:32:21;;;;;;;;;;;4.10;72.70;;;1.96;49.85;94085.75;10344798;28;1986;-82
2021/01/24 12:37:29;;;;;;;;;;;2.90;72.90;;;2.02;49.51;94062.72;10319575;28;2024;-83
2021/01/24 12:42:33;;;;;;;;;;;2.90;73.00;;;2.05;49.71;94078.91;10323575;28;1844;-83
2021/01/24 12:47:37;;;;;;;;;;;3.60;73.40;;;2.12;49.24;94086.59;10343787;28;2149;-82
2021/01/24 12:52:42;;;;;;;;;;;3.40;73.20;;;2.13;49.71;94070.44;10339501;28;2090;-82
2021/01/24 12:57:44;;;;;;;;;;;4.40;73.70;;;1.92;49.35;94105.91;10379424;28;1586;-82
2021/01/24 13:02:50;;;;;;;;;;;3.00;72.40;;;1.81;49.89;94083.06;10363845;28;1996;-84
2021/01/24 13:07:52;;;;;;;;;;;4.20;73.00;;;1.80;50.26;94076.97;10330014;28;2033;-86
2021/01/24 13:12:54;;;;;;;;;;;2.70;73.00;;;1.76;50.96;94085.69;10350999;28;2124;-84
2021/01/24 13:17:57;;;;;;;;;;;3.70;74.40;;;1.75;51.46;94086.75;10341674;28;1701;-84
2021/01/24 13:22:58;;;;;;;;;;;3.70;74.90;;;1.58;51.31;94079.78;10341095;28;1931;-84
2021/01/24 13:28:03;;;;;;;;;;;3.30;74.50;;;1.66;51.66;94078.53;10346826;28;2004;-85
2021/01/24 13:33:05;;;;;;;;;;;3.20;74.80;;;1.75;51.12;94079.59;10358380;28;1887;-84
2021/01/24 13:38:07;;;;;;;;;;;2.70;74.50;;;1.81;51.01;94080.41;10384839;28;1906;-85
2021/01/24 13:43:09;;;;;;;;;;;2.90;74.50;;;1.84;51.26;94096.56;10349016;28;1299;-81
2021/01/24 13:48:11;;;;;;;;;;;2.80;74.40;;;1.71;51.78;94109.50;10379149;28;1288;-86
2021/01/24 13:53:13;;;;;;;;;;;4.50;75.40;;;1.63;51.65;94106.31;10350365;28;1895;-84
2021/01/24 13:58:18;;;;;;;;;;;3.20;74.70;;;1.61;52.58;94111.06;10345762;28;1562;-87
2021/01/24 14:03:20;;;;;;;;;;;2.60;75.10;;;1.54;53.37;94110.50;10383069;28;1289;-86
2021/01/24 14:08:22;;;;;;;;;;;2.90;75.50;;;1.35;53.31;94118.09;10363210;28;1619;-86
2021/01/24 14:13:24;;;;;;;;;;;2.50;75.40;;;1.30;54.07;94126.00;10372974;28;1895;-86
2021/01/24 14:18:26;;;;;;;;;;;2.40;76.20;;;1.24;54.26;94120.94;10364884;28;1241;-84
2021/01/24 14:23:28;;;;;;;;;;;3.00;77.00;;;1.48;54.12;94131.94;10355708;28;1668;-84
2021/01/24 14:28:30;;;;;;;;;;;2.40;77.20;;;1.39;53.32;94128.94;10360918;28;1220;-86
2021/01/24 14:33:32;;;;;;;;;;;2.40;75.60;;;1.19;53.92;94134.13;10356951;28;1918;-85
2021/01/24 14:38:34;;;;;;;;;;;3.20;76.70;;;1.37;53.86;94136.38;10361275;28;1247;-84
2021/01/24 14:43:50;;;;;;;;;;;2.30;76.90;;;1.30;53.56;94135.78;10367602;28;1253;-80
2021/01/24 14:48:52;;;;;;;;;;;4.40;76.90;;;1.03;54.21;94131.38;10365430;28;1552;-85
2021/01/24 14:53:54;;;;;;;;;;;2.20;76.30;;;0.85;55.06;94129.13;10360096;28;1987;-86
2021/01/24 14:58:56;;;;;;;;;;;2.00;77.00;;;0.75;56.21;94143.06;10366345;28;1695;-84
2021/01/24 15:03:57;;;;;;;;;;;1.90;78.20;;;0.72;56.13;94132.22;10356552;28;1276;-85
2021/01/24 15:09:12;;;;;;;;;;;1.80;78.40;;;0.53;56.85;94131.78;10367571;28;1639;-85
2021/01/24 15:14:32;;;;;;;;;;;1.70;78.80;;;0.52;57.53;94136.28;10359858;28;1906;-85
2021/01/24 15:19:34;;;;;;;;;;;2.90;80.20;;;0.42;56.96;94141.44;10363482;28;1660;-85
2021/01/24 15:24:37;;;;;;;;;;;1.50;79.20;;;0.51;57.02;94139.97;10365872;28;1115;-85
2021/01/24 15:29:39;;;;;;;;;;;2.20;80.10;;;0.55;57.39;94142.88;10371963;28;1509;-84
2021/01/24 15:34:41;;;;;;;;;;;3.30;80.70;;;0.49;57.21;94152.63;10366824;28;1911;-83
2021/01/24 15:39:42;;;;;;;;;;;1.60;79.70;;;0.57;57.42;94158.50;10352535;28;1962;-82
2021/01/24 15:44:44;;;;;;;;;;;2.00;80.40;;;0.64;57.63;94161.75;10364436;28;1159;-83
2021/01/24 15:49:46;;;;;;;;;;;1.60;80.40;;;0.64;57.81;94175.00;10359443;28;1632;-85
2021/01/24 15:54:48;;;;;;;;;;;1.60;80.20;;;0.53;57.50;94172.22;10370752;28;1944;-84
2021/01/24 15:59:50;;;;;;;;;;;1.60;80.10;;;0.54;57.91;94170.38;10361496;28;1707;-82
2021/01/24 16:04:51;;;;;;;;;;;1.60;80.70;;;0.52;58.56;94183.88;10354623;28;1078;-83
2021/01/24 16:09:53;;;;;;;;;;;1.60;81.20;;;0.46;58.79;94184.06;10358184;28;1591;-84
2021/01/24 16:14:55;;;;;;;;;;;2.20;81.50;;;0.40;58.83;94180.56;10357118;28;1989;-81
2021/01/24 16:19:57;;;;;;;;;;;1.50;81.30;;;0.32;59.57;94186.31;10340677;28;1605;-84
2021/01/24 16:24:59;;;;;;;;;;;1.40;81.60;;;0.30;59.18;94193.66;10363935;28;1680;-83
2021/01/24 16:30:04;;;;;;;;;;;1.60;81.60;;;0.36;58.97;94200.59;10352815;28;1480;-82
2021/01/24 16:35:06;;;;;;;;;;;1.40;81.70;;;0.32;58.61;94198.69;10370120;28;1887;-85
2021/01/24 16:40:08;;;;;;;;;;;1.80;81.80;;;0.31;59.59;94205.81;10375329;28;1441;-84
2021/01/24 16:45:10;;;;;;;;;;;1.30;82.00;;;0.35;59.63;94204.28;10345887;28;1537;-84
2021/01/24 16:50:13;;;;;;;;;;;1.60;82.40;;;0.31;59.42;94195.25;10339496;28;1363;-85
2021/01/24 16:55:14;;;;;;;;;;;1.40;82.00;;;0.22;59.59;94192.25;10355698;28;1904;-84
2021/01/24 17:00:16;;;;;;;;;;;2.80;82.80;;;0.15;59.26;94182.94;10354445;28;1322;-85
2021/01/24 17:05:18;;;;;;;;;;;1.20;82.30;;;0.01;60.03;94189.66;10340257;28;1573;-85
2021/01/24 17:10:21;;;;;;;;;;;1.60;82.60;;;0.06;60.74;94194.97;10342571;28;1327;-83
2021/01/24 17:15:22;;;;;;;;;;;1.10;83.10;;;0.01;60.58;94185.16;10337446;28;1982;-82
2021/01/24 17:20:24;;;;;;;;;;;1.10;83.10;;;-0.01;60.03;94195.94;10341960;28;1494;-84
2021/01/24 17:25:26;;;;;;;;;;;1.10;82.90;;;-0.05;60.57;94200.16;10344608;28;1568;-82
2021/01/24 17:30:28;;;;;;;;;;;1.00;82.90;;;-0.13;60.75;94194.47;10341601;28;1600;-82
2021/01/24 17:35:30;;;;;;;;;;;0.90;83.00;;;-0.30;60.69;94192.69;10349950;28;1958;-81
2021/01/24 17:40:32;;;;;;;;;;;0.80;82.90;;;-0.37;61.22;94196.56;10325893;28;1485;-83
2021/01/24 17:45:34;;;;;;;;;;;0.70;83.10;;;-0.52;61.55;94204.25;10355018;28;1527;-82
2021/01/24 17:50:36;;;;;;;;;;;0.70;83.60;;;-0.56;61.44;94209.25;10354890;28;1532;-84
2021/01/24 17:55:38;;;;;;;;;;;0.60;84.10;;;-0.57;61.69;94212.94;10350719;28;1891;-82
2021/01/24 18:00:41;;;;;;;;;;;0.50;84.40;;;-0.60;61.43;94219.47;10361584;28;1553;-84
2021/01/24 18:05:42;;;;;;;;;;;0.50;84.50;;;-0.62;62.22;94226.84;10366731;28;1592;-82
2021/01/24 18:10:44;;;;;;;;;;;0.80;84.70;;;-0.65;62.22;94232.59;10364454;28;1675;-82
2021/01/24 18:15:46;;;;;;;;;;;0.50;84.60;;;-0.56;62.42;94231.16;10345571;28;1942;-84
2021/01/24 18:20:48;;;;;;;;;;;0.50;84.90;;;-0.49;62.32;94230.19;10353935;28;1645;-82
2021/01/24 18:25:54;;;;;;;;;;;0.60;84.90;;;-0.43;61.79;94232.66;10350691;28;1101;-83
2021/01/24 18:30:57;;;;;;;;;;;0.60;84.50;;;-0.30;61.27;94234.16;10383598;23;1880;-83
2021/01/24 18:36:05;;;;;;;;;;;0.70;84.40;;;-0.28;61.26;94237.34;10383835;28;1922;-83
2021/01/24 18:41:13;;;;;;;;;;;0.80;84.20;;;-0.27;61.05;94238.94;10382807;28;2046;-80
2021/01/24 18:46:26;;;;;;;;;;;0.70;83.80;;;-0.38;60.52;94237.19;10370828;28;2015;-81
2021/01/24 18:51:30;;;;;;;;;;;2.40;84.20;;;-0.41;60.87;94248.25;10390995;28;2044;-82
2021/01/24 18:56:32;;;;;;;;;;;0.80;83.60;;;-0.44;60.43;94249.53;10364506;28;2103;-81
2021/01/24 19:01:34;;;;;;;;;;;1.50;84.10;;;-0.58;61.17;94249.06;10395154;28;1628;-82
2021/01/24 19:06:38;;;;;;;;;;;0.50;83.40;;;-0.77;61.68;94242.44;10398312;28;1655;-81
2021/01/24 19:11:40;;;;;;;;;;;0.40;83.30;;;-0.95;62.36;94237.41;10384939;28;1887;-82
2021/01/24 19:16:42;;;;;;;;;;;0.30;84.20;;;-1.05;62.83;94231.97;10387915;28;1739;-85
2021/01/24 19:21:44;;;;;;;;;;;0.10;84.60;;;-1.15;63.52;94243.13;10396413;28;1620;-84
2021/01/24 19:26:46;;;;;;;;;;;0.00;84.90;;;-1.27;63.56;94237.94;10386727;28;3277;-82
2021/01/24 19:31:51;;;;;;;;;;;0.60;85.90;;;-1.40;63.98;94238.22;10400722;28;3463;-79
2021/01/24 19:36:58;;;;;;;;;;;0.90;86.30;;;-1.51;64.43;94234.63;10362534;28;2472;-81
2021/01/24 19:42:21;;;;;;;;;;;-0.20;86.10;;;-1.60;65.72;94240.47;10298051;28;2599;-79
2021/01/24 19:47:29;;;;;;;;;;;0.70;87.60;;;-1.74;66.11;94227.59;10380480;28;2300;-79
2021/01/24 19:52:32;;;;;;;;;;;-0.20;88.00;;;-1.75;66.17;94239.16;10369504;28;2022;-81
2021/01/24 19:57:34;;;;;;;;;;;-0.10;88.60;;;-1.84;67.00;94235.31;10356864;28;2694;-79
2021/01/24 20:02:37;;;;;;;;;;;-0.60;88.60;;;-1.84;65.85;94231.88;10365899;28;2630;-81
2021/01/24 20:07:52;;;;;;;;;;;0.60;89.20;;;-1.89;67.62;94237.84;10381527;28;2655;-83
2021/01/24 20:12:54;;;;;;;;;;;0.70;90.20;;;-1.97;68.13;94230.31;10374430;28;3493;-82
2021/01/24 20:17:56;;;;;;;;;;;-0.70;89.70;;;-1.95;67.70;94238.78;10377780;28;2092;-84
2021/01/24 20:22:58;;;;;;;;;;;0.10;90.40;;;-2.10;68.52;94236.66;10385302;28;2641;-83
2021/01/24 20:28:03;;;;;;;;;;;0.30;90.70;;;-2.07;68.29;94235.38;10387582;28;2366;-85
2021/01/24 20:33:08;;;;;;;;;;;-0.90;90.60;;;-2.15;68.85;94241.00;10382870;28;2657;-81
2021/01/24 20:38:10;;;;;;;;;;;-0.90;90.80;;;-2.25;69.17;94236.31;10371013;28;2728;-85
2021/01/24 20:43:15;;;;;;;;;;;0.10;91.60;;;-2.23;69.08;94237.72;10377900;28;2654;-83
2021/01/24 20:48:18;;;;;;;;;;;-1.00;91.50;;;-2.27;70.02;94231.28;10376753;28;2018;-83
2021/01/24 20:53:20;;;;;;;;;;;0.70;92.60;;;-2.26;70.24;94240.78;10378466;28;2037;-86
2021/01/24 20:58:25;;;;;;;;;;;-1.10;92.20;;;-2.39;70.45;94235.75;10383611;28;2065;-85
2021/01/24 21:03:28;;;;;;;;;;;-0.20;92.90;;;-2.38;70.40;94237.38;10382155;28;1976;-84
2021/01/24 21:08:38;;;;;;;;;;;-0.20;93.40;;;-2.34;69.88;94220.09;10386331;28;2639;-83
2021/01/24 21:13:42;;;;;;;;;;;-1.10;92.50;;;-2.36;69.49;94224.75;10384485;28;2705;-85
2021/01/24 21:18:44;;;;;;;;;;;-1.20;92.50;;;-2.50;70.95;94224.22;10365472;28;2514;-84
2021/01/24 21:23:47;;;;;;;;;;;0.40;93.90;;;-2.53;70.97;94218.63;10387606;28;1904;-82
2021/01/24 21:28:48;;;;;;;;;;;-0.40;93.80;;;-2.54;70.50;94219.66;10385391;28;2132;-83
2021/01/24 21:33:50;;;;;;;;;;;0.90;94.50;;;-2.58;71.10;94213.25;10392885;28;2018;-83
2021/01/24 21:38:52;;;;;;;;;;;-1.40;93.60;;;-2.69;71.24;94216.69;10388346;28;2757;-83
2021/01/24 21:43:54;;;;;;;;;;;-0.50;94.40;;;-2.79;71.59;94218.06;10391063;28;1950;-83
2021/01/24 21:48:56;;;;;;;;;;;-1.40;94.20;;;-2.80;72.05;94216.47;10398536;28;1860;-81
2021/01/24 21:53:58;;;;;;;;;;;-0.10;95.40;;;-2.84;72.76;94220.56;10387078;28;2315;-85
2021/01/24 21:59:00;;;;;;;;;;;-0.20;95.70;;;-2.93;72.64;94224.56;10380312;28;2032;-83
2021/01/24 22:04:05;;;;;;;;;;;-1.60;95.00;;;-2.94;72.40;94220.31;10358589;28;1658;-84
2021/01/24 22:09:06;;;;;;;;;;;-1.10;95.50;;;-2.96;72.81;94211.09;10385650;28;2296;-85
2021/01/24 22:14:08;;;;;;;;;;;-1.70;95.60;;;-3.09;72.91;94206.84;10366573;28;1945;-84
2021/01/24 22:19:10;;;;;;;;;;;-0.10;96.50;;;-3.13;74.23;94200.44;10390844;28;2037;-85
2021/01/24 22:24:12;;;;;;;;;;;-0.50;97.10;;;-3.15;73.96;94205.13;10400294;28;2023;-85
2021/01/24 22:29:13;;;;;;;;;;;-1.80;96.50;;;-3.17;73.68;94207.97;10386224;28;2676;-86
2021/01/24 22:34:15;;;;;;;;;;;-1.90;96.70;;;-3.23;74.40;94187.06;10395736;28;2034;-81
2021/01/24 22:39:19;;;;;;;;;;;-2.00;97.10;;;-3.27;74.39;94194.59;10385341;28;1998;-86
2021/01/24 22:44:20;;;;;;;;;;;-2.00;97.40;;;-3.30;74.79;94195.06;10366874;28;1971;-83
2021/01/24 22:49:22;;;;;;;;;;;-1.70;98.00;;;-3.23;75.05;94189.69;10391097;28;2299;-82
2021/01/24 22:54:24;;;;;;;;;;;-2.00;98.10;;;-3.02;74.11;94192.56;10402119;28;2054;-85
2021/01/24 22:59:26;;;;;;;;;;;-1.10;98.70;;;-3.04;74.10;94188.56;10391618;28;1253;-84
2021/01/24 23:04:28;;;;;;;;;;;-0.30;98.80;;;-3.01;74.03;94193.34;10415131;28;1972;-85
2021/01/24 23:09:30;;;;;;;;;;;-1.80;97.90;;;-3.09;74.41;94180.56;10417988;28;1615;-86
2021/01/24 23:14:31;;;;;;;;;;;-1.00;98.30;;;-2.94;73.71;94162.50;10387645;28;1986;-84
2021/01/24 23:19:34;;;;;;;;;;;-1.90;98.00;;;-2.83;73.45;94151.16;10386816;28;2047;-84
2021/01/24 23:24:36;;;;;;;;;;;-1.60;98.10;;;-2.81;72.51;94143.84;10393050;28;2620;-85
2021/01/24 23:29:38;;;;;;;;;;;-1.20;97.70;;;-2.77;72.79;94137.09;10397738;28;2067;-85
2021/01/24 23:34:41;;;;;;;;;;;-1.70;97.60;;;-2.71;72.66;94143.28;10405953;28;1996;-83
2021/01/24 23:39:43;;;;;;;;;;;-1.70;97.40;;;-2.72;72.57;94145.09;10419837;28;1968;-86
2021/01/24 23:44:45;;;;;;;;;;;-0.90;97.80;;;-2.70;72.35;94136.19;10394995;28;2150;-83
2021/01/24 23:49:47;;;;;;;;;;;-1.60;97.30;;;-2.63;72.68;94139.47;10395848;28;2292;-85
2021/01/24 23:54:49;;;;;;;;;;;-1.50;97.90;;;-2.58;72.91;94129.06;10397418;28;2030;-85
2021/01/24 23:59:51;;;;;;;;;;;-0.90;98.00;;;-2.54;73.25;94131.00;10411281;28;1988;-83
